Time;durP1;ratioP1;P1;durP2;ratioP2;P2;SDS_P1;SDS_P2;PMS_P1;PMS_P2;Temp;Humidity;BMP_temperature;BMP_pressure;BME280_temperature;BME280_humidity;BME280_pressure;Samples;Min_cycle;Max_cycle;Signal;HPM_P1;HPM_P2
2023/03/26 00:00:39;;;;;;;14.73;7.05;;;10.90;99.90;;;;;;5085944;28;20039;-77
2023/03/26 00:03:05;;;;;;;13.93;6.43;;;10.90;99.90;;;;;;5079716;28;20032;-75
2023/03/26 00:05:31;;;;;;;12.65;6.57;;;10.90;99.90;;;;;;5084647;28;20028;-77
2023/03/26 00:07:57;;;;;;;15.23;6.07;;;10.80;99.90;;;;;;5073813;28;20373;-76
2023/03/26 00:10:24;;;;;;;14.32;6.97;;;10.90;99.90;;;;;;5086498;28;20024;-75
2023/03/26 00:12:50;;;;;;;;;;;10.80;99.90;;;;;;5077910;28;20046;-77
2023/03/26 00:15:16;;;;;;;14.05;6.00;;;10.90;99.90;;;;;;5082457;28;19916;-76
2023/03/26 00:17:45;;;;;;;14.05;5.35;;;10.80;99.90;;;;;;5075079;28;20028;-75
2023/03/26 00:20:12;;;;;;;13.57;5.57;;;10.80;99.90;;;;;;5086166;28;20058;-76
2023/03/26 00:22:39;;;;;;;13.80;5.68;;;10.80;99.90;;;;;;5079344;28;20630;-75
2023/03/26 00:25:08;;;;;;;13.40;6.05;;;10.80;99.90;;;;;;5078090;28;20028;-76
2023/03/26 00:27:34;;;;;;;13.93;6.95;;;10.80;99.90;;;;;;5075144;28;20459;-75
2023/03/26 00:30:02;;;;;;;16.63;7.00;;;10.80;99.90;;;;;;5078443;28;20086;-75
2023/03/26 00:32:29;;;;;;;14.27;6.10;;;10.70;99.90;;;;;;5082566;28;20153;-77
2023/03/26 00:34:55;;;;;;;;;;;10.70;99.90;;;;;;5081418;28;20557;-76
2023/03/26 00:37:25;;;;;;;13.15;6.82;;;10.60;99.90;;;;;;5079978;28;20398;-77
2023/03/26 00:39:52;;;;;;;15.60;6.63;;;10.60;99.90;;;;;;5069957;28;20380;-76
2023/03/26 00:42:18;;;;;;;15.00;7.03;;;10.60;99.90;;;;;;5083674;28;20544;-77
2023/03/26 00:44:44;;;;;;;11.38;5.95;;;10.50;99.90;;;;;;5080109;28;20032;-76
2023/03/26 00:47:10;;;;;;;14.00;6.53;;;10.50;99.90;;;;;;5076539;28;20030;-74
2023/03/26 00:49:35;;;;;;;16.17;6.43;;;10.60;99.90;;;;;;5079356;28;20047;-76
2023/03/26 00:52:02;;;;;;;15.93;6.20;;;10.60;99.90;;;;;;5081911;28;20025;-76
2023/03/26 00:54:28;;;;;;;17.55;6.15;;;10.60;99.90;;;;;;5074353;28;20044;-74
2023/03/26 00:56:54;;;;;;;20.83;7.80;;;10.60;99.90;;;;;;5088120;28;20021;-75
2023/03/26 00:59:21;;;;;;;18.42;6.32;;;10.60;99.90;;;;;;5080556;28;20117;-75
2023/03/26 01:01:48;;;;;;;10.80;5.85;;;10.70;99.90;;;;;;5085112;28;20043;-76
2023/03/26 01:04:19;;;;;;;16.88;5.90;;;10.60;99.90;;;;;;5094659;28;20031;-75
2023/03/26 01:06:45;;;;;;;12.57;5.32;;;10.70;99.90;;;;;;5075745;28;20029;-75
2023/03/26 01:09:17;;;;;;;13.98;5.30;;;10.80;99.90;;;;;;5079867;28;20036;-75
2023/03/26 01:11:44;;;;;;;15.38;5.78;;;10.80;99.90;;;;;;5081303;28;20390;-75
2023/03/26 01:14:11;;;;;;;;;;;10.80;99.90;;;;;;5075963;28;20029;-76
2023/03/26 01:16:43;;;;;;;6.65;3.95;;;10.70;99.90;;;;;;5086590;28;19916;-75
2023/03/26 01:19:36;;;;;;;12.38;5.05;;;10.80;99.90;;;;;;5077564;28;20039;-76
2023/03/26 01:22:04;;;;;;;9.25;3.55;;;10.80;99.90;;;;;;5094464;28;20051;-76
2023/03/26 01:24:30;;;;;;;10.93;3.80;;;10.90;99.90;;;;;;5079646;28;20033;-75
2023/03/26 01:27:19;;;;;;;10.10;4.25;;;11.00;99.90;;;;;;5080570;28;20151;-75
2023/03/26 01:29:52;;;;;;;15.77;4.88;;;10.80;99.90;;;;;;5081093;28;20033;-74
2023/03/26 01:32:52;;;;;;;12.63;5.53;;;10.90;99.90;;;;;;5075907;28;20559;-76
2023/03/26 01:35:59;;;;;;;11.30;4.13;;;10.90;99.90;;;;;;5085961;28;20036;-77
2023/03/26 01:38:45;;;;;;;9.88;4.07;;;10.90;99.90;;;;;;5080132;28;20016;-76
2023/03/26 01:41:20;;;;;;;14.73;5.10;;;11.00;99.90;;;;;;5076650;28;20115;-76
2023/03/26 01:43:57;;;;;;;9.38;4.03;;;10.90;99.90;;;;;;5076252;28;20055;-76
2023/03/26 01:46:24;;;;;;;12.18;4.80;;;11.00;99.90;;;;;;5114171;28;20059;-76
2023/03/26 01:48:50;;;;;;;;;;;11.00;99.90;;;;;;5076758;28;20446;-76
2023/03/26 01:51:27;;;;;;;11.43;4.22;;;11.10;99.90;;;;;;5074984;28;19908;-76
2023/03/26 01:53:54;;;;;;;10.38;3.90;;;11.10;99.90;;;;;;5070466;28;20032;-76
2023/03/26 01:56:34;;;;;;;7.85;2.83;;;11.20;99.90;;;;;;5078088;28;20135;-75
2023/03/26 01:59:17;;;;;;;12.52;3.38;;;11.20;99.90;;;;;;5076056;28;20487;-76
2023/03/26 02:01:48;;;;;;;6.03;2.63;;;11.30;99.90;;;;;;5080457;28;20028;-76
2023/03/26 02:04:25;;;;;;;5.80;2.38;;;11.40;99.90;;;;;;5089794;28;20020;-74
2023/03/26 02:07:11;;;;;;;8.20;2.47;;;11.50;99.90;;;;;;5079175;28;20037;-77
2023/03/26 02:09:44;;;;;;;8.45;2.40;;;11.50;99.90;;;;;;5087557;28;20028;-76
2023/03/26 02:12:12;;;;;;;10.23;2.47;;;11.60;99.90;;;;;;5081934;28;20404;-77
2023/03/26 02:14:38;;;;;;;8.57;2.67;;;11.60;99.90;;;;;;5100345;28;20115;-76
2023/03/26 02:17:03;;;;;;;6.60;2.60;;;11.70;99.90;;;;;;5083276;28;20111;-77
2023/03/26 02:19:29;;;;;;;7.47;2.30;;;11.70;99.90;;;;;;5078547;28;20291;-76
2023/03/26 02:21:58;;;;;;;4.93;2.17;;;11.80;99.90;;;;;;5087636;28;20028;-77
2023/03/26 02:24:24;;;;;;;9.25;2.30;;;11.90;99.90;;;;;;5096778;28;20373;-76
2023/03/26 02:26:50;;;;;;;7.00;2.13;;;11.80;99.90;;;;;;5085773;28;20032;-76
2023/03/26 02:29:19;;;;;;;6.53;2.27;;;11.80;99.90;;;;;;5087414;28;20035;-77
2023/03/26 02:31:47;;;;;;;3.95;2.13;;;11.90;99.90;;;;;;5075805;28;20046;-74
2023/03/26 02:34:13;;;;;;;5.03;2.33;;;12.00;99.90;;;;;;5083614;28;20066;-76
2023/03/26 02:36:41;;;;;;;5.05;2.38;;;11.90;99.90;;;;;;5084137;28;20492;-76
2023/03/26 02:39:09;;;;;;;9.25;2.15;;;12.00;99.90;;;;;;5082652;28;20028;-73
2023/03/26 02:41:36;;;;;;;6.45;2.10;;;11.90;99.90;;;;;;5073430;28;20496;-75
2023/03/26 02:44:02;;;;;;;5.97;2.40;;;12.00;99.70;;;;;;5086398;28;20487;-76
2023/03/26 02:46:27;;;;;;;9.10;2.20;;;12.00;99.90;;;;;;5086579;28;20039;-75
2023/03/26 02:48:53;;;;;;;6.57;2.63;;;12.00;99.90;;;;;;5080675;28;20024;-76
2023/03/26 02:51:19;;;;;;;3.67;1.90;;;12.00;99.90;;;;;;5080879;28;20400;-75
2023/03/26 02:53:44;;;;;;;5.20;1.87;;;12.00;99.90;;;;;;5082116;28;20815;-75
2023/03/26 02:56:11;;;;;;;5.37;1.63;;;11.90;99.90;;;;;;5083515;28;20050;-76
2023/03/26 02:58:36;;;;;;;;;;;11.80;99.90;;;;;;5083327;28;20493;-73
2023/03/26 03:01:02;;;;;;;10.23;2.03;;;11.80;99.90;;;;;;5078792;28;19908;-75
2023/03/26 03:03:28;;;;;;;8.80;2.40;;;11.90;99.90;;;;;;5075277;28;20039;-74
2023/03/26 03:05:57;;;;;;;4.50;1.88;;;11.80;99.90;;;;;;5088357;28;20496;-76
2023/03/26 03:08:25;;;;;;;6.53;2.50;;;11.80;99.90;;;;;;5083862;28;20039;-77
2023/03/26 03:11:00;;;;;;;6.75;2.03;;;11.70;99.90;;;;;;5081942;28;20043;-73
2023/03/26 03:13:26;;;;;;;8.32;2.05;;;11.60;99.90;;;;;;5081576;28;20031;-75
2023/03/26 03:15:52;;;;;;;8.73;1.85;;;11.70;99.90;;;;;;5084975;28;20551;-74
2023/03/26 03:18:18;;;;;;;6.68;2.08;;;11.70;99.90;;;;;;5080147;28;20035;-75
2023/03/26 03:20:43;;;;;;;3.97;1.93;;;11.60;99.90;;;;;;5088533;28;20462;-75
2023/03/26 03:23:10;;;;;;;7.27;2.37;;;11.60;99.90;;;;;;5081919;28;20539;-76
2023/03/26 03:25:37;;;;;;;6.90;2.30;;;11.50;99.90;;;;;;5079849;28;20024;-76
2023/03/26 03:28:03;;;;;;;6.63;2.30;;;11.60;99.90;;;;;;5072805;28;20056;-75
2023/03/26 03:30:29;;;;;;;6.97;2.08;;;11.50;99.90;;;;;;5080862;28;20016;-74
2023/03/26 03:32:57;;;;;;;9.00;2.58;;;11.40;99.90;;;;;;5080856;28;20026;-76
2023/03/26 03:35:23;;;;;;;5.95;2.25;;;11.40;99.90;;;;;;5097326;28;20503;-74
2023/03/26 03:37:49;;;;;;;5.38;2.13;;;11.40;99.90;;;;;;5083187;28;20029;-74
2023/03/26 03:40:14;;;;;;;5.50;2.73;;;11.50;99.90;;;;;;5074503;28;20115;-76
2023/03/26 03:42:40;;;;;;;5.37;2.00;;;11.40;99.90;;;;;;5084854;28;20036;-76
2023/03/26 03:45:06;;;;;;;5.53;1.90;;;11.40;99.90;;;;;;5084222;28;20027;-77
2023/03/26 03:47:32;;;;;;;7.30;2.60;;;11.40;99.90;;;;;;5082285;28;20040;-77
2023/03/26 03:49:59;;;;;;;6.67;2.23;;;11.40;99.90;;;;;;5078426;28;20043;-75
2023/03/26 03:52:26;;;;;;;11.60;2.05;;;11.40;99.90;;;;;;5085753;28;20027;-77
2023/03/26 03:54:53;;;;;;;9.07;1.85;;;11.50;99.90;;;;;;5082619;28;20026;-76
2023/03/26 03:57:20;;;;;;;6.72;1.80;;;11.50;99.90;;;;;;5079131;28;20081;-77
2023/03/26 03:59:46;;;;;;;6.45;1.92;;;11.50;99.90;;;;;;5080832;28;20048;-76
2023/03/26 04:02:12;;;;;;;7.72;2.10;;;11.40;99.90;;;;;;5075207;28;20038;-76
2023/03/26 04:04:38;;;;;;;11.25;1.85;;;11.40;99.90;;;;;;5081619;28;20028;-76
2023/03/26 04:07:05;;;;;;;6.00;2.35;;;11.50;99.90;;;;;;5075584;28;20103;-77
2023/03/26 04:09:30;;;;;;;5.85;1.65;;;11.40;99.90;;;;;;5078728;28;20499;-76
2023/03/26 04:11:56;;;;;;;4.07;1.70;;;11.40;99.90;;;;;;5086167;28;20055;-77
2023/03/26 04:14:22;;;;;;;5.50;2.00;;;11.30;99.90;;;;;;5080849;28;20719;-76
2023/03/26 04:16:50;;;;;;;5.80;2.00;;;11.30;99.90;;;;;;5075465;28;20024;-77
2023/03/26 04:19:16;;;;;;;4.90;1.70;;;11.40;99.90;;;;;;5080271;28;20027;-74
2023/03/26 04:21:41;;;;;;;7.13;2.03;;;11.30;99.90;;;;;;5085995;28;20462;-76
2023/03/26 04:24:08;;;;;;;7.00;2.10;;;11.20;99.90;;;;;;5080618;28;20066;-75
2023/03/26 04:26:34;;;;;;;;;;;11.20;99.90;;;;;;5090982;28;20012;-75
2023/03/26 04:29:03;;;;;;;7.18;2.00;;;11.20;99.90;;;;;;5084697;28;19923;-76
2023/03/26 04:31:29;;;;;;;4.80;1.73;;;11.30;99.90;;;;;;5076048;28;20452;-77
2023/03/26 04:34:24;;;;;;;3.80;1.40;;;11.30;99.90;;;;;;5081022;28;20111;-75
2023/03/26 04:36:53;;;;;;;3.67;1.55;;;11.40;99.90;;;;;;5075362;28;20044;-76
2023/03/26 04:39:20;;;;;;;6.82;1.85;;;11.50;99.90;;;;;;5076314;28;20025;-75
2023/03/26 04:41:47;;;;;;;6.13;1.85;;;11.60;99.90;;;;;;5072605;28;20407;-73
2023/03/26 04:44:15;;;;;;;5.93;1.70;;;11.60;99.90;;;;;;5077943;28;20043;-75
2023/03/26 04:46:42;;;;;;;5.63;2.00;;;11.60;99.90;;;;;;5071432;28;20538;-76
2023/03/26 04:49:08;;;;;;;4.93;1.92;;;11.60;99.90;;;;;;5076254;28;20115;-73
2023/03/26 04:51:40;;;;;;;6.87;1.83;;;11.70;99.90;;;;;;5077274;28;20118;-75
2023/03/26 04:54:07;;;;;;;6.30;1.92;;;11.90;99.90;;;;;;5074928;28;20282;-75
2023/03/26 04:56:45;;;;;;;;;;;11.90;99.90;;;;;;5083326;28;20032;-75
2023/03/26 04:59:25;;;;;;;2.30;1.48;;;11.90;99.90;;;;;;5076514;28;19918;-74
2023/03/26 05:01:52;;;;;;;7.05;1.80;;;11.90;99.90;;;;;;5079737;28;20491;-74
2023/03/26 05:04:18;;;;;;;7.22;2.20;;;12.00;99.90;;;;;;5078978;28;20092;-76
2023/03/26 05:06:43;;;;;;;5.80;1.93;;;12.10;99.90;;;;;;5076246;28;20025;-73
2023/03/26 05:09:09;;;;;;;4.70;1.73;;;12.10;99.90;;;;;;5079380;28;20043;-75
2023/03/26 05:11:35;;;;;;;6.27;1.77;;;12.10;99.90;;;;;;5078700;28;20129;-76
2023/03/26 05:14:01;;;;;;;7.53;1.73;;;12.00;99.90;;;;;;5076760;28;20035;-73
2023/03/26 05:16:27;;;;;;;7.45;2.05;;;12.00;99.90;;;;;;5072518;28;20051;-75
2023/03/26 05:18:54;;;;;;;6.65;1.73;;;12.00;99.90;;;;;;5074296;28;20024;-75
2023/03/26 05:21:19;;;;;;;6.13;2.17;;;12.00;99.90;;;;;;5081224;28;20039;-75
2023/03/26 05:23:45;;;;;;;5.80;2.17;;;11.90;99.90;;;;;;5079508;28;20028;-74
2023/03/26 05:26:11;;;;;;;9.47;2.17;;;11.80;99.90;;;;;;5076024;28;20025;-74
2023/03/26 05:28:37;;;;;;;7.93;2.37;;;11.60;99.90;;;;;;5080368;28;20297;-74
2023/03/26 05:31:02;;;;;;;12.80;2.40;;;11.60;99.90;;;;;;5078790;28;20510;-74
2023/03/26 05:33:28;;;;;;;9.43;2.25;;;11.50;99.90;;;;;;5072706;28;20028;-74
2023/03/26 05:36:06;;;;;;;10.03;2.70;;;11.60;99.90;;;;;;5075938;28;20078;-74
2023/03/26 05:38:32;;;;;;;12.13;2.60;;;11.60;99.90;;;;;;5079172;28;20151;-73
2023/03/26 05:41:03;;;;;;;10.23;1.83;;;11.60;99.90;;;;;;5082772;28;20554;-73
2023/03/26 05:43:29;;;;;;;8.63;2.75;;;11.60;99.90;;;;;;5075416;28;20032;-74
2023/03/26 05:45:55;;;;;;;8.05;2.50;;;11.50;99.90;;;;;;5081669;28;20024;-74
2023/03/26 05:48:21;;;;;;;10.15;2.38;;;11.50;99.90;;;;;;5078235;28;20032;-73
2023/03/26 05:50:51;;;;;;;7.63;2.47;;;11.50;99.90;;;;;;5081409;28;20031;-73
2023/03/26 05:53:17;;;;;;;17.15;4.47;;;11.50;99.90;;;;;;5082614;28;20512;-74
2023/03/26 05:55:49;;;;;;;;;;;11.50;99.90;;;;;;5085431;28;20369;-74
2023/03/26 05:58:15;;;;;;;10.93;2.70;;;11.40;99.90;;;;;;5075539;28;19983;-74
2023/03/26 06:00:42;;;;;;;6.25;2.40;;;11.50;99.90;;;;;;5082550;28;20040;-74
2023/03/26 06:03:11;;;;;;;12.50;2.65;;;11.50;99.90;;;;;;5082115;28;20050;-74
2023/03/26 06:05:38;;;;;;;9.65;2.55;;;11.40;99.90;;;;;;5082646;28;20044;-74
2023/03/26 06:08:04;;;;;;;10.57;2.67;;;11.60;99.90;;;;;;5083305;28;20054;-74
2023/03/26 06:10:30;;;;;;;7.95;2.10;;;11.60;99.90;;;;;;5076173;28;20032;-74
2023/03/26 06:12:56;;;;;;;4.47;2.03;;;11.60;99.90;;;;;;5080076;28;20032;-74
2023/03/26 06:15:22;;;;;;;7.50;1.93;;;11.60;99.90;;;;;;5081705;28;20078;-73
2023/03/26 06:17:47;;;;;;;6.93;3.58;;;11.60;99.90;;;;;;5073086;28;21091;-74
2023/03/26 06:20:14;;;;;;;7.77;2.70;;;11.60;99.90;;;;;;5077670;28;20036;-73
2023/03/26 06:22:40;;;;;;;10.73;2.40;;;11.50;99.90;;;;;;5080234;28;20134;-73
2023/03/26 06:25:06;;;;;;;14.02;2.70;;;11.50;99.90;;;;;;5078091;28;20103;-74
2023/03/26 06:27:32;;;;;;;13.38;2.70;;;11.50;99.90;;;;;;5072685;28;20587;-74
2023/03/26 06:29:57;;;;;;;10.00;2.60;;;11.60;99.90;;;;;;5077302;28;20040;-74
2023/03/26 06:32:23;;;;;;;8.93;2.57;;;11.50;99.90;;;;;;5078475;28;20075;-73
2023/03/26 06:34:49;;;;;;;6.83;2.17;;;11.60;99.90;;;;;;5072650;28;20036;-75
2023/03/26 06:37:15;;;;;;;10.07;2.10;;;11.60;99.90;;;;;;5077229;28;20028;-75
2023/03/26 06:39:41;;;;;;;11.50;2.78;;;11.60;99.90;;;;;;5080292;28;20032;-74
2023/03/26 06:42:07;;;;;;;10.73;2.43;;;11.60;99.90;;;;;;5074179;28;20041;-71
2023/03/26 06:44:33;;;;;;;6.23;2.37;;;11.60;99.90;;;;;;5083988;28;20784;-74
2023/03/26 06:46:58;;;;;;;7.53;2.80;;;11.60;99.90;;;;;;5085281;28;20293;-74
2023/03/26 06:49:24;;;;;;;14.07;2.70;;;11.60;99.90;;;;;;5079650;28;20074;-77
2023/03/26 06:51:50;;;;;;;9.10;2.70;;;11.60;99.90;;;;;;5082297;28;20020;-71
2023/03/26 06:54:16;;;;;;;18.73;3.05;;;11.60;99.90;;;;;;5084938;28;20035;-74
2023/03/26 06:56:41;;;;;;;22.77;4.23;;;11.60;99.90;;;;;;5092370;28;20479;-71
2023/03/26 06:59:07;;;;;;;13.63;3.47;;;11.50;99.90;;;;;;5094288;28;20282;-74
2023/03/26 07:01:33;;;;;;;9.63;2.23;;;11.40;99.90;;;;;;5086425;28;20039;-76
2023/03/26 07:03:58;;;;;;;19.03;3.03;;;11.30;99.90;;;;;;5086139;28;20103;-75
2023/03/26 07:06:24;;;;;;;8.77;2.87;;;11.30;99.90;;;;;;5083326;28;20112;-75
2023/03/26 07:08:50;;;;;;;17.93;3.33;;;11.20;99.90;;;;;;5085943;28;20043;-74
2023/03/26 07:11:18;;;;;;;13.83;3.17;;;11.20;99.90;;;;;;5085013;28;20410;-74
2023/03/26 07:13:44;;;;;;;9.80;3.08;;;11.10;99.90;;;;;;5082058;28;20032;-75
2023/03/26 07:16:10;;;;;;;12.98;3.05;;;11.10;99.90;;;;;;5077726;28;20094;-73
2023/03/26 07:18:36;;;;;;;14.03;3.23;;;11.10;99.90;;;;;;5078419;28;20529;-76
2023/03/26 07:21:02;;;;;;;17.30;3.13;;;11.10;99.90;;;;;;5077743;28;20043;-75
2023/03/26 07:23:28;;;;;;;10.65;3.10;;;11.00;99.90;;;;;;5077871;28;20024;-73
2023/03/26 07:25:54;;;;;;;16.45;3.40;;;10.90;99.90;;;;;;5074950;28;20038;-76
2023/03/26 07:28:25;;;;;;;9.15;2.78;;;10.90;99.90;;;;;;5077106;28;20029;-75
2023/03/26 07:31:00;;;;;;;11.02;3.47;;;11.10;99.90;;;;;;5078586;28;20032;-74
2023/03/26 07:33:42;;;;;;;16.15;3.42;;;11.00;99.90;;;;;;5078839;28;20035;-74
2023/03/26 07:36:26;;;;;;;14.57;3.38;;;10.90;99.90;;;;;;5079526;28;20040;-75
2023/03/26 07:39:24;;;;;;;15.32;3.85;;;11.00;99.90;;;;;;5078557;28;20035;-74
2023/03/26 07:42:02;;;;;;;13.48;2.97;;;11.00;99.90;;;;;;5073435;28;20040;-75
2023/03/26 07:44:42;;;;;;;14.25;3.55;;;11.00;99.90;;;;;;5079448;28;20031;-75
2023/03/26 07:47:26;;;;;;;11.13;3.35;;;10.90;99.90;;;;;;5074258;28;20028;-75
2023/03/26 07:49:53;;;;;;;6.85;2.53;;;11.00;99.90;;;;;;5080419;28;20038;-72
2023/03/26 07:52:19;;;;;;;13.25;4.00;;;11.00;99.90;;;;;;5075334;28;20059;-74
2023/03/26 07:54:45;;;;;;;12.88;3.33;;;11.00;99.90;;;;;;5074517;28;20037;-73
2023/03/26 07:57:50;;;;;;;15.20;4.07;;;11.10;99.90;;;;;;5076988;28;20040;-74
2023/03/26 08:00:29;;;;;;;16.05;4.00;;;11.10;99.90;;;;;;5051884;28;20037;-74
2023/03/26 08:02:57;;;;;;;12.68;3.40;;;11.10;99.90;;;;;;5078415;28;20035;-72
2023/03/26 08:05:32;;;;;;;17.05;3.53;;;11.10;99.90;;;;;;5085065;28;20022;-74
2023/03/26 08:08:23;;;;;;;19.15;3.17;;;11.10;99.90;;;;;;5081789;28;20048;-76
2023/03/26 08:11:30;;;;;;;7.57;2.60;;;11.20;99.90;;;;;;5082677;28;20602;-75
2023/03/26 08:13:56;;;;;;;10.57;3.10;;;11.20;99.90;;;;;;5062938;28;20115;-77
2023/03/26 08:16:37;;;;;;;12.07;2.55;;;11.20;99.90;;;;;;5064198;28;20377;-75
2023/03/26 08:19:17;;;;;;;18.38;2.80;;;11.30;99.90;;;;;;5071647;28;20389;-76
2023/03/26 08:21:52;;;;;;;7.20;2.30;;;11.40;99.90;;;;;;5076812;28;20522;-75
2023/03/26 08:24:33;;;;;;;7.85;2.17;;;11.50;99.90;;;;;;5085119;28;20507;-72
2023/03/26 08:26:58;;;;;;;9.30;2.05;;;11.60;99.90;;;;;;5081556;28;20403;-72
2023/03/26 08:29:45;;;;;;;6.37;2.23;;;11.60;99.90;;;;;;5086024;28;20016;-75
2023/03/26 08:32:16;;;;;;;9.93;2.28;;;11.70;99.90;;;;;;5083733;28;20039;-74
2023/03/26 08:34:42;;;;;;;9.35;2.15;;;11.70;99.90;;;;;;5081965;28;20507;-74
2023/03/26 08:37:08;;;;;;;6.67;2.43;;;11.70;99.90;;;;;;5075895;28;20110;-74
2023/03/26 08:39:35;;;;;;;8.60;2.45;;;11.80;99.90;;;;;;5073195;28;20028;-73
2023/03/26 08:42:22;;;;;;;7.15;1.95;;;11.90;99.90;;;;;;5080746;28;20047;-72
2023/03/26 08:45:30;;;;;;;10.05;2.55;;;11.90;99.90;;;;;;5076358;28;20028;-74
2023/03/26 08:48:53;;;;;;;8.43;2.27;;;12.00;99.90;;;;;;5076847;28;20464;-72
2023/03/26 08:51:21;;;;;;;9.30;2.85;;;12.00;99.90;;;;;;5034114;28;20134;-72
2023/03/26 08:54:08;;;;;;;10.23;1.80;;;11.90;99.90;;;;;;5043127;28;20111;-73
2023/03/26 08:57:15;;;;;;;6.82;2.53;;;12.00;99.90;;;;;;5065451;28;20554;-75
2023/03/26 09:00:19;;;;;;;10.82;2.40;;;11.90;99.90;;;;;;5075373;28;20032;-75
2023/03/26 09:03:02;;;;;;;10.38;2.72;;;12.00;99.90;;;;;;5062431;28;20052;-76
2023/03/26 09:05:42;;;;;;;6.80;2.35;;;12.00;99.90;;;;;;5079395;28;20500;-74
2023/03/26 09:08:45;;;;;;;7.95;2.28;;;12.00;99.90;;;;;;5071790;28;20032;-72
2023/03/26 09:11:55;;;;;;;8.82;2.20;;;11.90;99.90;;;;;;5081255;28;20143;-73
2023/03/26 09:14:49;;;;;;;10.25;3.70;;;11.90;99.90;;;;;;5074725;28;20039;-75
2023/03/26 09:17:31;;;;;;;8.18;3.03;;;12.00;99.90;;;;;;5076413;28;20723;-75
2023/03/26 09:20:36;;;;;;;6.63;2.15;;;12.00;99.90;;;;;;5080265;28;20028;-76
2023/03/26 09:23:39;;;;;;;7.63;2.90;;;12.00;99.90;;;;;;5073408;28;20071;-75
2023/03/26 09:26:39;;;;;;;9.57;1.88;;;12.10;99.90;;;;;;5078168;28;20074;-75
2023/03/26 09:30:03;;;;;;;5.53;1.60;;;12.20;99.90;;;;;;5061866;28;20043;-74
2023/03/26 09:32:43;;;;;;;7.05;2.20;;;12.30;99.90;;;;;;5076672;28;20047;-75
2023/03/26 09:35:36;;;;;;;6.93;1.70;;;12.40;99.90;;;;;;5074348;28;20033;-75
2023/03/26 09:38:21;;;;;;;9.13;1.80;;;12.50;99.90;;;;;;5076427;28;20029;-74
2023/03/26 09:41:07;;;;;;;3.50;1.80;;;12.50;99.90;;;;;;5080059;28;20115;-75
2023/03/26 09:43:41;;;;;;;10.70;2.33;;;12.70;99.90;;;;;;5078385;28;20032;-75
2023/03/26 09:46:24;;;;;;;6.57;2.05;;;14.70;99.90;;;;;;5079943;28;20165;-75
2023/03/26 09:48:56;;;;;;;6.50;2.00;;;14.10;99.90;;;;;;5080589;28;20053;-75
2023/03/26 09:51:54;;;;;;;5.70;1.67;;;13.80;99.90;;;;;;5082703;28;20027;-75
2023/03/26 09:54:29;;;;;;;5.45;1.70;;;13.60;99.90;;;;;;5073199;28;20049;-75
2023/03/26 09:57:12;;;;;;;6.38;2.13;;;13.40;99.90;;;;;;5083332;28;20082;-75
2023/03/26 09:59:37;;;;;;;6.88;1.90;;;13.30;99.90;;;;;;5093203;28;20089;-75
2023/03/26 10:02:37;;;;;;;4.97;2.10;;;13.30;99.90;;;;;;5085829;28;20053;-75
2023/03/26 10:05:30;;;;;;;10.13;2.33;;;13.20;99.90;;;;;;5082267;28;20032;-72
2023/03/26 10:08:32;;;;;;;7.95;2.10;;;13.10;99.90;;;;;;5084980;28;20034;-72
2023/03/26 10:11:22;;;;;;;11.10;2.50;;;13.10;99.90;;;;;;5050371;28;20040;-72
2023/03/26 10:14:12;;;;;;;6.93;2.30;;;12.80;99.90;;;;;;5074975;28;20027;-71
2023/03/26 10:16:55;;;;;;;6.72;2.20;;;12.80;99.90;;;;;;5081511;28;20055;-71
2023/03/26 10:19:58;;;;;;;8.38;2.65;;;12.80;99.90;;;;;;5084125;28;20103;-72
2023/03/26 10:22:48;;;;;;;11.13;2.90;;;12.70;99.90;;;;;;5085252;28;20070;-72
2023/03/26 10:25:22;;;;;;;7.75;2.28;;;12.70;99.90;;;;;;5082206;28;20094;-72
2023/03/26 10:27:51;;;;;;;10.88;2.45;;;12.80;99.90;;;;;;5079266;28;20041;-72
2023/03/26 10:30:16;;;;;;;15.75;3.05;;;12.80;99.90;;;;;;5077844;28;20123;-72
2023/03/26 10:33:12;;;;;;;7.50;2.63;;;12.90;99.90;;;;;;5080011;28;20115;-72
2023/03/26 10:35:50;;;;;;;12.60;3.22;;;13.30;99.90;;;;;;5070811;28;20045;-70
2023/03/26 10:38:21;;;;;;;16.55;3.72;;;13.40;99.90;;;;;;5081713;28;20028;-72
2023/03/26 10:41:16;;;;;;;8.35;2.83;;;13.50;99.90;;;;;;5085847;28;20078;-71
2023/03/26 10:44:20;;;;;;;9.93;3.25;;;13.40;99.90;;;;;;5082065;28;20032;-72
2023/03/26 10:47:12;;;;;;;11.65;2.95;;;13.30;99.90;;;;;;5080118;28;20514;-72
2023/03/26 10:49:40;;;;;;;6.75;2.53;;;13.30;99.90;;;;;;5056907;28;20089;-70
2023/03/26 10:52:30;;;;;;;8.82;3.25;;;13.50;99.90;;;;;;5075931;28;20036;-73
2023/03/26 10:55:14;;;;;;;10.10;3.00;;;13.50;99.90;;;;;;5100991;28;20039;-73
2023/03/26 10:57:49;;;;;;;10.25;2.90;;;13.50;99.90;;;;;;5081027;28;20073;-71
2023/03/26 11:00:25;;;;;;;8.27;2.45;;;13.60;99.90;;;;;;5075290;28;20404;-71
2023/03/26 11:03:12;;;;;;;9.52;3.28;;;13.70;99.90;;;;;;5079461;28;20040;-71
2023/03/26 11:06:15;;;;;;;14.13;2.97;;;13.90;99.90;;;;;;5084820;28;20055;-71
2023/03/26 11:08:43;;;;;;;11.95;3.03;;;13.90;99.90;;;;;;5081501;28;20328;-71
2023/03/26 11:11:12;;;;;;;11.07;2.70;;;14.10;99.90;;;;;;5080734;28;20035;-72
2023/03/26 11:14:07;;;;;;;8.50;2.60;;;14.30;99.90;;;;;;5085429;28;20025;-72
2023/03/26 11:16:53;;;;;;;10.35;2.60;;;14.50;99.90;;;;;;5071021;28;20059;-71
2023/03/26 11:19:22;;;;;;;9.70;2.85;;;14.80;99.90;;;;;;5080972;28;20028;-72
2023/03/26 11:22:38;;;;;;;9.15;3.03;;;14.80;99.90;;;;;;5079406;28;20031;-72
2023/03/26 11:25:22;;;;;;;7.57;2.50;;;15.10;99.90;;;;;;5063572;28;20043;-72
2023/03/26 11:28:04;;;;;;;13.18;2.60;;;14.90;99.90;;;;;;5083875;28;20036;-73
2023/03/26 11:31:00;;;;;;;7.97;2.47;;;15.00;99.90;;;;;;5082555;28;20020;-72
2023/03/26 11:33:33;;;;;;;9.80;3.10;;;14.60;99.90;;;;;;5076754;28;20025;-72
2023/03/26 11:36:05;;;;;;;10.40;3.20;;;14.60;99.90;;;;;;5077723;28;20427;-72
2023/03/26 11:38:40;;;;;;;10.15;2.92;;;14.80;99.90;;;;;;5068226;28;20031;-73
2023/03/26 11:41:29;;;;;;;10.20;3.08;;;15.00;99.90;;;;;;5075703;28;20043;-72
2023/03/26 11:44:23;;;;;;;6.68;2.10;;;15.20;99.90;;;;;;5078415;28;20028;-72
2023/03/26 11:46:53;;;;;;;5.28;1.95;;;15.60;99.90;;;;;;5077275;28;20503;-72
2023/03/26 11:49:21;;;;;;;7.15;2.17;;;15.90;99.90;;;;;;5069632;28;20036;-72
2023/03/26 11:51:47;;;;;;;4.45;2.00;;;16.40;99.90;;;;;;5074552;28;20044;-72
2023/03/26 11:54:13;;;;;;;4.28;1.55;;;16.40;98.40;;;;;;5076903;28;20032;-72
2023/03/26 11:57:11;;;;;;;5.47;1.88;;;16.10;98.90;;;;;;5080126;28;20787;-73
2023/03/26 12:00:06;;;;;;;6.85;1.90;;;16.20;98.10;;;;;;5078072;28;20119;-72
2023/03/26 12:02:39;;;;;;;7.47;2.03;;;16.60;98.50;;;;;;5083946;28;20055;-72
2023/03/26 12:05:11;;;;;;;3.72;1.42;;;16.60;97.70;;;;;;5093396;28;20039;-72
2023/03/26 12:07:45;;;;;;;5.13;1.35;;;16.60;96.60;;;;;;5083722;28;20106;-71
2023/03/26 12:10:38;;;;;;;10.05;1.92;;;16.30;96.50;;;;;;5080918;28;20024;-72
2023/03/26 12:13:33;;;;;;;2.95;1.30;;;16.10;95.60;;;;;;5084214;28;20467;-72
2023/03/26 12:16:14;;;;;;;5.70;1.50;;;15.60;95.20;;;;;;5078496;28;20572;-72
2023/03/26 12:18:42;;;;;;;4.45;1.30;;;15.40;95.60;;;;;;5081116;28;20024;-73
2023/03/26 12:21:14;;;;;;;3.10;1.08;;;14.90;96.90;;;;;;5082468;28;20020;-73
2023/03/26 12:24:00;;;;;;;3.78;0.98;;;14.50;96.80;;;;;;5081882;28;20092;-73
2023/03/26 12:26:41;;;;;;;6.38;1.42;;;13.90;99.40;;;;;;5083130;28;20035;-72
2023/03/26 12:29:13;;;;;;;5.10;1.20;;;12.80;99.90;;;;;;5078741;28;20875;-71
2023/03/26 12:31:45;;;;;;;4.30;0.98;;;12.50;99.90;;;;;;5074901;28;20040;-72
2023/03/26 12:34:20;;;;;;;3.55;1.15;;;12.30;99.90;;;;;;5077865;28;20112;-72
2023/03/26 12:36:52;;;;;;;5.57;1.27;;;12.30;99.90;;;;;;5070701;28;20566;-72
2023/03/26 12:39:43;;;;;;;7.88;1.40;;;12.30;99.90;;;;;;5074864;28;20547;-72
2023/03/26 12:42:29;;;;;;;3.75;1.02;;;12.60;99.90;;;;;;5070314;28;20032;-73
2023/03/26 12:44:56;;;;;;;5.32;1.27;;;13.00;99.90;;;;;;5076401;28;20404;-72
2023/03/26 12:47:26;;;;;;;11.82;1.48;;;13.20;99.90;;;;;;5077595;28;20570;-73
2023/03/26 12:49:52;;;;;;;6.00;1.17;;;13.60;99.90;;;;;;5077974;28;20071;-72
2023/03/26 12:52:44;;;;;;;4.75;1.15;;;13.50;99.90;;;;;;5074526;28;20165;-72
2023/03/26 12:55:35;;;;;;;3.20;1.10;;;13.60;99.90;;;;;;5076565;28;20036;-72
2023/03/26 12:58:33;;;;;;;3.92;1.23;;;13.70;99.90;;;;;;5082519;28;20412;-72
2023/03/26 13:01:14;;;;;;;3.60;1.17;;;13.80;99.90;;;;;;5075584;28;20035;-72
2023/03/26 13:04:02;;;;;;;3.03;1.10;;;14.00;99.90;;;;;;5077877;28;20396;-73
2023/03/26 13:06:39;;;;;;;4.70;1.00;;;14.50;99.90;;;;;;5068565;28;20032;-72
2023/03/26 13:09:21;;;;;;;;;;;14.50;99.90;;;;;;5076258;28;20028;-72
2023/03/26 13:12:02;;;;;;;3.00;0.80;;;14.60;99.90;;;;;;5074220;28;19912;-72
2023/03/26 13:14:55;;;;;;;7.13;1.30;;;14.40;99.90;;;;;;5074650;28;20078;-73
2023/03/26 13:17:34;;;;;;;3.60;0.90;;;14.50;99.90;;;;;;5076139;28;20051;-72
2023/03/26 13:20:33;;;;;;;0.77;0.70;;;14.70;99.90;;;;;;5076509;28;20056;-73
2023/03/26 13:23:13;;;;;;;1.25;0.43;;;14.90;99.80;;;;;;5073677;28;20029;-74